Time;durP1;ratioP1;P1;durP2;ratioP2;P2;SDS_P1;SDS_P2;PMS_P1;PMS_P2;Temp;Humidity;BMP_temperature;BMP_pressure;BME280_temperature;BME280_humidity;BME280_pressure;Samples;Min_cycle;Max_cycle;Signal;HPM_P1;HPM_P2
2023/05/01 00:00:08;;;;;;;5.50;4.40;;;12.40;99.90;;;;;;5067848;28;20458;-76
2023/05/01 00:02:35;;;;;;;4.30;3.47;;;12.40;99.90;;;;;;5067812;28;20466;-76
2023/05/01 00:05:01;;;;;;;5.27;3.67;;;12.30;99.90;;;;;;5067469;28;20951;-76
2023/05/01 00:07:29;;;;;;;6.37;3.70;;;12.30;99.90;;;;;;5067884;28;20496;-76
2023/05/01 00:09:56;;;;;;;5.77;3.60;;;12.30;99.90;;;;;;5067935;28;20510;-76
2023/05/01 00:12:21;;;;;;;6.20;3.53;;;12.30;99.90;;;;;;5069562;28;20431;-76
2023/05/01 00:14:47;;;;;;;7.20;3.20;;;12.20;99.90;;;;;;5071705;28;20403;-76
2023/05/01 00:17:13;;;;;;;4.77;4.07;;;12.20;99.90;;;;;;5071824;28;20181;-76
2023/05/01 00:19:39;;;;;;;8.13;4.50;;;12.10;99.90;;;;;;5071745;28;20738;-76
2023/05/01 00:22:05;;;;;;;6.20;3.60;;;12.10;99.90;;;;;;5071614;28;20950;-76
2023/05/01 00:24:31;;;;;;;5.90;4.13;;;12.00;99.90;;;;;;5071437;28;20407;-76
2023/05/01 00:26:57;;;;;;;5.83;4.07;;;11.90;99.90;;;;;;5053623;28;20418;-76
2023/05/01 00:29:23;;;;;;;4.87;4.30;;;11.80;99.90;;;;;;5071490;28;20210;-76
2023/05/01 00:31:48;;;;;;;6.60;3.87;;;11.80;99.90;;;;;;5071530;28;20672;-77
2023/05/01 00:34:14;;;;;;;5.40;4.13;;;11.70;99.90;;;;;;5071306;28;20226;-76
2023/05/01 00:36:40;;;;;;;6.53;5.13;;;11.70;99.90;;;;;;5071295;28;20192;-76
2023/05/01 00:39:08;;;;;;;7.33;4.40;;;11.60;99.90;;;;;;5071160;28;20188;-76
2023/05/01 00:41:35;;;;;;;4.93;4.00;;;11.60;99.90;;;;;;5071038;28;20446;-76
2023/05/01 00:44:01;;;;;;;5.23;4.23;;;11.50;99.90;;;;;;5071675;28;20403;-77
2023/05/01 00:46:28;;;;;;;6.10;4.67;;;11.50;99.90;;;;;;5071140;28;20445;-77
2023/05/01 00:48:56;;;;;;;6.37;4.63;;;11.50;99.90;;;;;;5071181;28;20455;-77
2023/05/01 00:51:22;;;;;;;5.57;3.80;;;11.50;99.90;;;;;;5071063;28;20438;-76
2023/05/01 00:53:48;;;;;;;7.70;4.47;;;11.50;99.90;;;;;;5071647;28;20411;-77
2023/05/01 00:56:14;;;;;;;6.47;4.70;;;11.50;99.90;;;;;;5070180;28;20178;-76
2023/05/01 00:58:41;;;;;;;6.63;4.30;;;11.50;99.90;;;;;;5071525;28;20428;-76
2023/05/01 01:01:09;;;;;;;4.90;4.20;;;11.40;99.90;;;;;;5071430;28;20795;-77
2023/05/01 01:03:35;;;;;;;6.87;4.50;;;11.40;99.90;;;;;;5071079;28;20474;-76
2023/05/01 01:06:31;;;;;;;5.03;4.50;;;11.40;99.90;;;;;;5070263;28;20443;-76
2023/05/01 01:09:12;;;;;;;5.43;4.93;;;11.40;99.90;;;;;;5070941;28;20216;-76
2023/05/01 01:12:02;;;;;;;5.00;3.80;;;11.40;99.90;;;;;;5070756;28;20435;-76
2023/05/01 01:14:32;;;;;;;6.37;4.30;;;11.30;99.90;;;;;;5070517;28;20420;-77
2023/05/01 01:17:23;;;;;;;6.00;4.00;;;11.40;99.90;;;;;;5070622;28;20411;-77
2023/05/01 01:19:57;;;;;;;4.03;3.40;;;11.40;99.90;;;;;;5060149;28;20414;-76
2023/05/01 01:22:25;;;;;;;5.27;3.53;;;11.40;99.90;;;;;;5070617;28;20828;-77
2023/05/01 01:25:15;;;;;;;6.43;4.67;;;11.30;99.90;;;;;;5068061;28;20411;-77
2023/05/01 01:27:40;;;;;;;6.20;4.80;;;11.40;99.90;;;;;;5069021;28;20467;-77
2023/05/01 01:30:17;;;;;;;5.43;4.10;;;11.20;99.90;;;;;;5070669;28;20447;-77
2023/05/01 01:33:04;;;;;;;5.83;4.10;;;11.20;99.90;;;;;;5070371;28;20417;-77
2023/05/01 01:35:30;;;;;;;6.63;3.77;;;11.20;99.90;;;;;;5069819;28;20835;-77
2023/05/01 01:38:03;;;;;;;5.13;4.63;;;11.10;99.90;;;;;;5060344;28;20868;-77
2023/05/01 01:40:42;;;;;;;4.73;4.20;;;11.10;99.90;;;;;;5067012;28;20423;-77
2023/05/01 01:43:12;;;;;;;5.03;3.97;;;11.00;99.90;;;;;;5069958;28;20852;-76
2023/05/01 01:45:43;;;;;;;5.37;4.03;;;11.00;99.90;;;;;;5070410;28;20419;-77
2023/05/01 01:48:16;;;;;;;5.10;4.13;;;10.90;99.90;;;;;;5069886;28;20983;-77
2023/05/01 01:50:44;;;;;;;5.00;4.40;;;10.90;99.90;;;;;;5070076;28;21120;-77
2023/05/01 01:53:15;;;;;;;5.20;4.70;;;10.80;99.90;;;;;;5069801;28;20408;-76
2023/05/01 01:55:43;;;;;;;4.10;3.70;;;10.70;99.90;;;;;;5070393;28;20765;-77
2023/05/01 01:58:11;;;;;;;4.40;4.00;;;10.70;99.90;;;;;;5069713;28;20701;-76
2023/05/01 02:00:40;;;;;;;6.27;3.83;;;10.70;99.90;;;;;;5069855;28;20422;-77
2023/05/01 02:03:09;;;;;;;4.57;3.53;;;10.70;99.90;;;;;;5069549;28;20415;-76
2023/05/01 02:05:36;;;;;;;5.60;3.77;;;10.70;99.90;;;;;;5069902;28;20834;-76
2023/05/01 02:08:04;;;;;;;5.23;3.90;;;10.70;99.90;;;;;;5068184;28;20532;-77
2023/05/01 02:10:32;;;;;;;5.70;3.80;;;10.70;99.90;;;;;;5069520;28;20415;-76
2023/05/01 02:12:59;;;;;;;6.17;3.73;;;10.70;99.90;;;;;;5051321;28;20461;-77
2023/05/01 02:15:26;;;;;;;4.30;3.73;;;10.70;99.90;;;;;;5051699;28;20407;-76
2023/05/01 02:17:53;;;;;;;7.10;3.93;;;10.60;99.90;;;;;;5069472;28;20446;-77
2023/05/01 02:20:20;;;;;;;7.77;3.60;;;10.60;99.90;;;;;;5069242;28;20423;-77
2023/05/01 02:22:48;;;;;;;5.57;4.20;;;10.60;99.90;;;;;;5069280;28;20493;-77
2023/05/01 02:25:15;;;;;;;4.57;3.97;;;10.70;99.90;;;;;;5069603;28;20498;-77
2023/05/01 02:27:54;;;;;;;4.47;3.67;;;10.70;99.90;;;;;;5069164;28;20471;-77
2023/05/01 02:30:20;;;;;;;4.00;3.60;;;10.70;99.90;;;;;;5069309;28;20495;-76
2023/05/01 02:32:45;;;;;;;3.60;3.30;;;10.80;99.90;;;;;;5069125;28;20527;-77
2023/05/01 02:35:11;;;;;;;4.20;3.57;;;10.80;99.90;;;;;;5068843;28;20209;-77
2023/05/01 02:37:37;;;;;;;5.03;3.23;;;10.80;99.90;;;;;;5068959;28;20180;-76
2023/05/01 02:40:04;;;;;;;3.87;3.47;;;10.90;99.90;;;;;;5069259;28;20208;-77
2023/05/01 02:42:31;;;;;;;3.57;3.20;;;10.90;99.90;;;;;;5068958;28;20490;-76
2023/05/01 02:45:01;;;;;;;5.10;3.50;;;10.90;99.90;;;;;;5068888;28;20423;-76
2023/05/01 02:47:28;;;;;;;7.60;3.90;;;11.00;99.90;;;;;;5068701;28;20823;-77
2023/05/01 02:49:56;;;;;;;4.37;3.93;;;10.90;99.90;;;;;;5068767;28;20447;-77
2023/05/01 02:52:22;;;;;;;5.37;3.83;;;11.00;99.90;;;;;;5069122;28;20514;-76
2023/05/01 02:54:49;;;;;;;4.80;3.53;;;10.90;99.90;;;;;;5050667;28;20472;-76
2023/05/01 02:57:16;;;;;;;5.00;4.40;;;10.90;99.90;;;;;;5050809;28;20458;-77
2023/05/01 02:59:42;;;;;;;5.83;3.83;;;10.90;99.90;;;;;;5068641;28;20446;-77
2023/05/01 03:02:08;;;;;;;4.37;3.97;;;10.90;99.90;;;;;;5068753;28;20467;-76
2023/05/01 03:04:34;;;;;;;4.00;3.60;;;10.90;99.90;;;;;;5068402;28;20203;-76
2023/05/01 03:07:00;;;;;;;3.63;3.33;;;10.90;99.90;;;;;;5068592;28;20181;-76
2023/05/01 03:09:25;;;;;;;5.20;3.80;;;10.80;99.90;;;;;;5068713;28;20177;-76
2023/05/01 03:11:51;;;;;;;4.63;3.20;;;10.90;99.90;;;;;;5068803;28;20419;-76
2023/05/01 03:14:17;;;;;;;4.97;3.90;;;10.90;99.90;;;;;;5068203;28;20180;-76
2023/05/01 03:16:43;;;;;;;3.80;3.40;;;10.90;99.90;;;;;;5068761;28;20689;-76
2023/05/01 03:19:09;;;;;;;3.80;3.50;;;11.00;99.90;;;;;;5068436;28;20235;-76
2023/05/01 03:21:35;;;;;;;3.80;3.50;;;11.00;99.90;;;;;;5068483;28;20439;-76
2023/05/01 03:24:02;;;;;;;5.87;3.57;;;11.10;99.90;;;;;;5068034;28;20451;-76
2023/05/01 03:26:28;;;;;;;4.40;4.00;;;11.10;99.90;;;;;;5050967;28;21033;-76
2023/05/01 03:28:54;;;;;;;3.97;3.50;;;11.00;99.90;;;;;;5068147;28;20459;-76
2023/05/01 03:31:20;;;;;;;5.60;3.60;;;11.00;99.90;;;;;;5068999;28;20795;-77
2023/05/01 03:33:46;;;;;;;4.80;3.30;;;11.00;99.90;;;;;;5068840;28;20185;-77
2023/05/01 03:36:12;;;;;;;3.70;3.40;;;11.00;99.90;;;;;;5056308;28;20928;-76
2023/05/01 03:38:38;;;;;;;5.77;3.47;;;11.00;99.90;;;;;;5068258;28;20500;-76
2023/05/01 03:41:04;;;;;;;3.67;3.27;;;11.00;99.90;;;;;;5068566;28;20435;-76
2023/05/01 03:43:30;;;;;;;4.67;3.83;;;11.00;99.90;;;;;;5067462;28;20431;-76
2023/05/01 03:45:57;;;;;;;5.50;3.60;;;11.00;99.90;;;;;;5068226;28;20419;-76
2023/05/01 03:48:23;;;;;;;4.47;3.70;;;11.00;99.90;;;;;;5070081;28;20467;-77
2023/05/01 03:50:52;;;;;;;4.37;3.97;;;11.00;99.90;;;;;;5072167;28;20741;-76
2023/05/01 03:53:18;;;;;;;4.07;3.00;;;11.00;99.90;;;;;;5072616;28;20847;-76
2023/05/01 03:55:44;;;;;;;3.57;3.27;;;10.90;99.90;;;;;;5072074;28;20465;-76
2023/05/01 03:58:09;;;;;;;4.20;3.43;;;10.90;99.90;;;;;;5072026;28;20680;-76
2023/05/01 04:00:36;;;;;;;4.20;3.30;;;10.90;99.90;;;;;;5072067;28;20385;-76
2023/05/01 04:03:02;;;;;;;3.03;2.73;;;10.90;99.90;;;;;;5072173;28;20207;-77
2023/05/01 04:05:29;;;;;;;5.10;3.10;;;10.90;99.90;;;;;;5072318;28;20453;-76
2023/05/01 04:07:55;;;;;;;4.47;3.20;;;10.80;99.90;;;;;;5087776;28;20461;-76
2023/05/01 04:10:21;;;;;;;3.60;3.30;;;10.80;99.90;;;;;;5072191;28;20419;-76
2023/05/01 04:12:46;;;;;;;3.97;3.50;;;10.80;99.90;;;;;;5054241;28;20430;-76
2023/05/01 04:15:12;;;;;;;5.10;3.10;;;10.80;99.90;;;;;;5072046;28;20177;-76
2023/05/01 04:17:38;;;;;;;4.10;3.70;;;10.70;99.90;;;;;;5071821;28;20192;-76
2023/05/01 04:20:05;;;;;;;4.67;3.67;;;10.70;99.90;;;;;;5037312;28;20924;-76
2023/05/01 04:22:31;;;;;;;4.33;3.43;;;10.70;99.90;;;;;;5072084;28;20431;-76
2023/05/01 04:24:57;;;;;;;4.73;3.87;;;10.70;99.90;;;;;;5071623;28;20449;-76
2023/05/01 04:27:23;;;;;;;3.53;3.10;;;10.70;99.90;;;;;;5071942;28;20508;-75
2023/05/01 04:29:50;;;;;;;5.73;3.20;;;10.60;99.90;;;;;;5053942;28;20556;-76
2023/05/01 04:32:16;;;;;;;4.37;3.23;;;10.60;99.90;;;;;;5057669;28;20475;-76
2023/05/01 04:34:43;;;;;;;4.77;3.43;;;10.60;99.90;;;;;;5071208;28;20427;-76
2023/05/01 04:37:09;;;;;;;3.53;3.00;;;10.60;99.90;;;;;;5071925;28;20427;-75
2023/05/01 04:39:35;;;;;;;2.93;2.70;;;10.70;99.90;;;;;;5073063;28;20928;-76
2023/05/01 04:42:02;;;;;;;3.07;2.70;;;10.80;99.90;;;;;;5069381;28;20586;-76
2023/05/01 04:44:28;;;;;;;8.07;3.67;;;10.80;99.90;;;;;;5070781;28;20821;-76
2023/05/01 04:46:53;;;;;;;4.83;3.17;;;10.90;99.90;;;;;;5071670;28;20421;-76
2023/05/01 04:49:21;;;;;;;4.20;2.97;;;10.90;99.90;;;;;;5070575;28;20206;-76
2023/05/01 04:51:46;;;;;;;3.43;3.00;;;10.90;99.90;;;;;;5077461;28;20203;-75
2023/05/01 04:54:12;;;;;;;4.90;3.20;;;11.00;99.90;;;;;;5091524;28;20410;-76
2023/05/01 04:56:38;;;;;;;5.63;3.00;;;11.00;99.90;;;;;;5091339;28;20227;-75
2023/05/01 04:59:04;;;;;;;2.80;2.60;;;11.00;99.90;;;;;;5091242;28;20200;-76
2023/05/01 05:01:29;;;;;;;5.40;3.43;;;11.10;99.90;;;;;;5060082;28;20614;-75
2023/05/01 05:03:55;;;;;;;3.40;2.80;;;11.10;99.90;;;;;;5058987;28;20307;-76
2023/05/01 05:06:21;;;;;;;2.80;2.57;;;11.20;99.90;;;;;;5070853;28;20276;-75
2023/05/01 05:08:50;;;;;;;3.10;2.80;;;11.20;99.90;;;;;;5070747;28;20295;-76
2023/05/01 05:11:19;;;;;;;3.40;2.60;;;11.30;99.90;;;;;;5053587;28;20524;-76
2023/05/01 05:13:45;;;;;;;3.70;2.90;;;11.30;99.90;;;;;;5076334;28;20779;-76
2023/05/01 05:16:11;;;;;;;3.50;2.73;;;11.30;99.90;;;;;;5069777;28;20430;-76
2023/05/01 05:18:37;;;;;;;3.30;3.00;;;11.30;99.90;;;;;;5070355;28;20418;-76
2023/05/01 05:21:07;;;;;;;3.73;3.37;;;11.20;99.90;;;;;;5065504;28;20463;-77
2023/05/01 05:23:33;;;;;;;3.23;2.93;;;11.20;99.90;;;;;;5070116;28;20434;-76
2023/05/01 05:26:00;;;;;;;3.53;2.87;;;11.30;99.90;;;;;;5070466;28;20811;-77
2023/05/01 05:28:27;;;;;;;3.10;2.80;;;11.40;99.90;;;;;;5070489;28;20455;-76
2023/05/01 05:30:53;;;;;;;3.13;2.60;;;11.40;99.90;;;;;;5070499;28;20423;-77
2023/05/01 05:33:19;;;;;;;3.80;2.53;;;11.50;99.90;;;;;;5088569;28;20414;-76
2023/05/01 05:35:45;;;;;;;2.70;2.50;;;11.50;99.90;;;;;;5077024;28;20438;-77
2023/05/01 05:38:10;;;;;;;3.57;2.80;;;11.60;99.90;;;;;;5070416;28;20784;-77
2023/05/01 05:40:36;;;;;;;3.40;2.10;;;11.60;99.90;;;;;;5068366;28;20213;-77
2023/05/01 05:43:02;;;;;;;3.97;3.03;;;11.70;99.90;;;;;;5070090;28;20193;-77
2023/05/01 05:45:28;;;;;;;3.03;2.73;;;11.80;99.90;;;;;;5070272;28;20184;-77
2023/05/01 05:47:53;;;;;;;3.60;3.30;;;11.80;99.90;;;;;;5070338;28;20649;-77
2023/05/01 05:50:19;;;;;;;3.47;2.13;;;11.80;99.90;;;;;;5070482;28;20668;-77
2023/05/01 05:52:45;;;;;;;3.30;3.00;;;11.90;99.90;;;;;;5081320;28;20212;-76
2023/05/01 05:55:10;;;;;;;2.60;2.40;;;11.90;99.90;;;;;;5056620;28;20176;-76
2023/05/01 05:57:36;;;;;;;2.70;2.47;;;12.00;99.90;;;;;;5040409;28;20196;-77
2023/05/01 06:00:06;;;;;;;2.90;2.53;;;12.10;99.90;;;;;;5071414;28;20192;-77
2023/05/01 06:02:32;;;;;;;2.93;2.60;;;12.10;99.90;;;;;;5052715;28;20259;-75
2023/05/01 06:04:58;;;;;;;3.27;2.97;;;12.20;99.90;;;;;;5052414;28;20434;-77
2023/05/01 06:07:24;;;;;;;3.00;2.53;;;12.30;99.90;;;;;;5069800;28;20240;-77
2023/05/01 06:09:50;;;;;;;3.90;2.70;;;12.30;99.90;;;;;;5060772;28;20454;-77
2023/05/01 06:12:16;;;;;;;4.93;2.67;;;12.40;99.90;;;;;;5055263;28;20472;-77
2023/05/01 06:14:42;;;;;;;2.87;2.67;;;12.40;99.90;;;;;;5072026;28;21025;-76
2023/05/01 06:17:08;;;;;;;2.90;2.50;;;12.50;99.90;;;;;;5071871;28;21132;-77
2023/05/01 06:19:34;;;;;;;3.20;2.20;;;12.50;99.90;;;;;;5041201;28;20177;-76
2023/05/01 06:22:00;;;;;;;3.97;2.33;;;12.50;99.90;;;;;;5069470;28;20690;-76
2023/05/01 06:24:26;;;;;;;3.30;2.50;;;12.60;99.90;;;;;;5069178;28;20498;-76
2023/05/01 06:26:52;;;;;;;2.87;2.57;;;12.70;99.90;;;;;;5069437;28;20416;-76
2023/05/01 06:29:18;;;;;;;2.90;2.60;;;12.70;99.90;;;;;;5068298;28;20217;-76
2023/05/01 06:31:44;;;;;;;4.17;2.70;;;12.80;99.90;;;;;;5069771;28;20455;-76
2023/05/01 06:34:10;;;;;;;2.80;2.60;;;12.90;99.90;;;;;;5069338;28;20166;-76
2023/05/01 06:36:36;;;;;;;2.23;2.03;;;12.90;99.90;;;;;;5069544;28;20764;-76
2023/05/01 06:39:02;;;;;;;2.90;1.97;;;12.90;99.90;;;;;;5051393;28;20412;-76
2023/05/01 06:41:27;;;;;;;3.20;2.90;;;13.00;99.90;;;;;;5069251;28;20197;-76
2023/05/01 06:43:53;;;;;;;3.10;2.37;;;13.00;99.90;;;;;;5051356;28;20184;-76
2023/05/01 06:46:19;;;;;;;3.03;2.40;;;13.10;99.90;;;;;;5069359;28;20268;-76
2023/05/01 06:48:45;;;;;;;2.53;2.30;;;13.20;99.90;;;;;;5068857;28;20216;-76
2023/05/01 06:51:13;;;;;;;3.90;2.57;;;13.20;99.90;;;;;;5068879;28;20197;-76
2023/05/01 06:53:40;;;;;;;2.80;2.23;;;13.30;99.90;;;;;;5068821;28;20538;-76
2023/05/01 06:56:06;;;;;;;3.30;2.73;;;13.30;99.90;;;;;;5068919;28;20809;-77
2023/05/01 06:58:32;;;;;;;4.53;2.80;;;13.30;99.90;;;;;;5068707;28;20403;-76
2023/05/01 07:01:01;;;;;;;2.83;2.60;;;13.40;99.90;;;;;;5034152;28;20523;-76
2023/05/01 07:03:27;;;;;;;6.23;2.33;;;13.50;99.90;;;;;;5050553;28;20465;-77
2023/05/01 07:05:54;;;;;;;2.33;2.10;;;13.50;99.90;;;;;;5068946;28;20447;-76
2023/05/01 07:08:20;;;;;;;3.30;2.20;;;13.50;99.90;;;;;;5068301;28;20468;-76
2023/05/01 07:10:46;;;;;;;3.67;2.40;;;13.60;99.90;;;;;;5070269;28;20424;-76
2023/05/01 07:13:11;;;;;;;2.67;2.47;;;13.60;99.90;;;;;;5059928;28;20419;-76
2023/05/01 07:15:37;;;;;;;3.50;2.37;;;13.70;99.90;;;;;;5067469;28;20203;-76
2023/05/01 07:18:06;;;;;;;4.53;2.73;;;13.70;99.90;;;;;;5068448;28;20188;-76
2023/05/01 07:20:33;;;;;;;3.63;2.60;;;13.70;99.90;;;;;;5068699;28;20967;-76
2023/05/01 07:22:59;;;;;;;4.70;2.70;;;13.80;99.90;;;;;;5066342;28;20458;-76
2023/05/01 07:25:24;;;;;;;4.53;2.90;;;13.80;99.90;;;;;;5068625;28;20511;-76
2023/05/01 07:27:50;;;;;;;2.63;2.43;;;13.90;99.90;;;;;;5068406;28;20728;-76
2023/05/01 07:30:16;;;;;;;3.90;2.60;;;13.90;99.90;;;;;;5050303;28;20189;-76
2023/05/01 07:32:41;;;;;;;3.07;2.77;;;14.00;99.90;;;;;;5063683;28;20201;-76
2023/05/01 07:35:08;;;;;;;2.93;2.47;;;14.00;99.90;;;;;;5068383;28;20184;-76
2023/05/01 07:37:33;;;;;;;4.10;2.67;;;14.10;99.90;;;;;;5068308;28;20184;-76
2023/05/01 07:39:59;;;;;;;3.53;3.03;;;14.10;99.90;;;;;;5068434;28;20419;-77
2023/05/01 07:42:26;;;;;;;2.60;2.40;;;14.20;99.90;;;;;;5050249;28;20288;-76
2023/05/01 07:44:52;;;;;;;2.63;2.43;;;14.20;99.90;;;;;;5068185;28;20422;-76
2023/05/01 07:47:18;;;;;;;3.50;2.60;;;14.30;99.90;;;;;;5050214;28;20458;-77
2023/05/01 07:49:44;;;;;;;4.00;2.90;;;14.30;99.90;;;;;;5068377;28;20184;-77
2023/05/01 07:52:09;;;;;;;2.90;2.70;;;14.40;99.90;;;;;;5070092;28;20447;-76
2023/05/01 07:54:35;;;;;;;2.93;2.37;;;14.50;99.90;;;;;;5068147;28;20268;-76
2023/05/01 07:57:01;;;;;;;2.93;2.67;;;14.50;99.90;;;;;;5066304;28;20922;-76
2023/05/01 07:59:27;;;;;;;3.10;2.60;;;14.50;99.90;;;;;;5050033;28;20904;-76
2023/05/01 08:01:53;;;;;;;2.80;2.60;;;14.70;99.90;;;;;;5066805;28;20746;-76
2023/05/01 08:04:21;;;;;;;4.33;2.67;;;14.70;99.90;;;;;;5066834;28;20522;-76
2023/05/01 08:06:50;;;;;;;3.23;2.93;;;14.70;99.90;;;;;;5048816;28;20770;-75
2023/05/01 08:09:16;;;;;;;3.57;2.77;;;14.80;99.90;;;;;;5049000;28;20458;-77
2023/05/01 08:11:42;;;;;;;4.30;2.53;;;14.80;99.90;;;;;;5066755;28;20970;-77
2023/05/01 08:14:08;;;;;;;2.97;2.40;;;14.90;99.90;;;;;;5069146;28;20420;-79
2023/05/01 08:16:34;;;;;;;3.90;2.80;;;14.90;99.90;;;;;;5054538;28;20193;-79
2023/05/01 08:19:00;;;;;;;4.17;2.67;;;15.00;99.90;;;;;;5064419;28;20177;-78
2023/05/01 08:21:26;;;;;;;2.50;2.30;;;15.00;99.90;;;;;;5067382;28;20801;-78
2023/05/01 08:23:54;;;;;;;3.30;3.00;;;15.10;99.90;;;;;;5060712;28;20812;-79
2023/05/01 08:26:20;;;;;;;5.33;2.77;;;15.20;99.90;;;;;;5064491;28;20189;-77
2023/05/01 08:28:47;;;;;;;3.53;2.37;;;15.20;99.90;;;;;;5068466;28;20466;-78
2023/05/01 08:31:13;;;;;;;4.43;2.60;;;15.20;99.90;;;;;;5067037;28;20522;-77
2023/05/01 08:33:40;;;;;;;4.60;2.40;;;15.30;99.90;;;;;;5072829;28;20892;-77
2023/05/01 08:36:08;;;;;;;3.13;2.57;;;15.30;99.90;;;;;;5056167;28;20415;-77
2023/05/01 08:38:37;;;;;;;3.60;2.30;;;15.40;99.90;;;;;;5067188;28;20419;-78
2023/05/01 08:41:03;;;;;;;3.07;2.87;;;15.50;99.90;;;;;;5054984;28;20583;-78
2023/05/01 08:43:32;;;;;;;3.00;2.80;;;15.50;99.90;;;;;;5042148;28;20518;-77
2023/05/01 08:46:04;;;;;;;4.17;2.50;;;15.50;99.90;;;;;;5074666;28;20219;-77
2023/05/01 08:48:34;;;;;;;3.20;2.70;;;15.60;99.90;;;;;;5055420;28;20497;-78
2023/05/01 08:51:00;;;;;;;4.93;2.63;;;15.60;99.90;;;;;;5047955;28;20450;-77
2023/05/01 08:53:27;;;;;;;2.60;2.40;;;15.60;99.90;;;;;;5058768;28;20540;-78
2023/05/01 08:55:58;;;;;;;2.83;2.33;;;15.60;99.90;;;;;;5077338;28;20948;-77
2023/05/01 08:58:25;;;;;;;4.10;2.57;;;15.70;99.90;;;;;;5072006;28;20461;-77
2023/05/01 09:00:55;;;;;;;2.50;2.30;;;15.70;99.90;;;;;;5073983;28;20458;-78
2023/05/01 09:03:21;;;;;;;3.67;2.37;;;15.70;99.90;;;;;;5080196;28;20558;-77
2023/05/01 09:05:47;;;;;;;3.60;2.70;;;15.80;99.90;;;;;;5060847;28;20443;-77
2023/05/01 09:08:13;;;;;;;3.30;3.00;;;15.90;99.90;;;;;;5061905;28;20819;-78
2023/05/01 09:10:44;;;;;;;3.50;2.70;;;15.90;99.90;;;;;;5080258;28;20475;-78
2023/05/01 09:13:11;;;;;;;3.53;3.03;;;16.00;99.90;;;;;;5075648;28;20434;-78
2023/05/01 09:15:37;;;;;;;3.53;2.40;;;16.10;99.90;;;;;;5071701;28;20450;-78
2023/05/01 09:18:03;;;;;;;3.10;2.80;;;16.20;99.90;;;;;;5052964;28;20447;-78
2023/05/01 09:20:30;;;;;;;3.10;2.73;;;16.30;99.90;;;;;;5076002;28;20837;-77
2023/05/01 09:22:56;;;;;;;2.90;2.60;;;16.40;99.90;;;;;;5074174;28;20197;-77
2023/05/01 09:25:22;;;;;;;6.53;2.90;;;16.60;99.90;;;;;;5076286;28;20579;-76
2023/05/01 09:27:48;;;;;;;6.30;3.20;;;16.70;99.90;;;;;;5052738;28;20237;-75
2023/05/01 09:30:40;;;;;;;4.50;2.97;;;16.70;99.50;;;;;;5066332;28;20217;-75
2023/05/01 09:33:15;;;;;;;5.43;3.33;;;16.70;99.40;;;;;;5067684;28;20415;-75
2023/05/01 09:35:55;;;;;;;3.13;2.60;;;16.80;99.30;;;;;;5068564;28;20442;-75
2023/05/01 09:38:26;;;;;;;3.70;2.40;;;16.80;99.80;;;;;;5050517;28;20451;-73
2023/05/01 09:40:55;;;;;;;2.87;2.57;;;17.00;99.90;;;;;;5069265;28;20427;-75
2023/05/01 09:43:25;;;;;;;3.30;2.73;;;17.10;99.90;;;;;;5068379;28;20542;-75
2023/05/01 09:46:08;;;;;;;2.60;2.40;;;17.20;99.90;;;;;;5071174;28;20436;-75
2023/05/01 09:48:34;;;;;;;2.83;2.60;;;17.30;99.70;;;;;;5069242;28;20558;-75
2023/05/01 09:51:00;;;;;;;2.43;2.20;;;17.40;98.90;;;;;;5058389;28;20435;-74
2023/05/01 09:53:37;;;;;;;4.50;2.33;;;17.50;98.50;;;;;;5055360;28;20959;-75
2023/05/01 09:56:03;;;;;;;2.93;2.70;;;17.50;97.70;;;;;;5059390;28;20438;-75
2023/05/01 09:58:29;;;;;;;2.43;2.03;;;17.60;98.10;;;;;;5068544;28;20552;-75
2023/05/01 10:00:54;;;;;;;2.70;2.47;;;17.60;98.10;;;;;;5074049;28;20688;-75
2023/05/01 10:03:20;;;;;;;4.60;4.20;;;17.70;98.70;;;;;;5079321;28;20216;-74
2023/05/01 10:05:46;;;;;;;3.30;2.70;;;17.80;99.00;;;;;;5077330;28;20208;-75
2023/05/01 10:08:13;;;;;;;4.10;2.80;;;17.90;97.10;;;;;;5081689;28;20210;-75
2023/05/01 10:10:42;;;;;;;2.40;2.20;;;17.80;95.70;;;;;;5060806;28;20446;-75
2023/05/01 10:13:16;;;;;;;7.70;2.90;;;18.00;96.60;;;;;;5074806;28;20426;-75
2023/05/01 10:15:45;;;;;;;3.00;2.80;;;18.20;98.30;;;;;;5071373;28;20439;-75
2023/05/01 10:18:12;;;;;;;3.90;2.47;;;18.30;96.20;;;;;;5060431;28;20526;-74
2023/05/01 10:20:38;;;;;;;5.50;2.93;;;18.40;96.30;;;;;;5076280;28;20426;-74
2023/05/01 10:23:05;;;;;;;2.90;2.60;;;18.40;97.80;;;;;;5078960;28;20435;-75
2023/05/01 10:25:31;;;;;;;2.73;2.17;;;18.50;98.10;;;;;;5074513;28;20466;-74
2023/05/01 10:28:03;;;;;;;2.43;2.23;;;18.50;96.60;;;;;;5069922;28;20454;-75
2023/05/01 10:30:30;;;;;;;5.43;2.23;;;18.60;96.60;;;;;;5065827;28;20447;-74
2023/05/01 10:32:57;;;;;;;2.00;1.90;;;18.60;97.00;;;;;;5075849;28;20445;-75
2023/05/01 10:35:37;;;;;;;2.13;1.93;;;18.60;96.10;;;;;;5075120;28;20484;-74
2023/05/01 10:38:09;;;;;;;2.33;2.13;;;18.60;97.10;;;;;;5065835;28;20434;-75
2023/05/01 10:40:47;;;;;;;2.60;2.40;;;18.50;96.20;;;;;;5076384;28;20431;-76
2023/05/01 10:43:29;;;;;;;2.47;2.27;;;18.50;95.90;;;;;;5063020;28;20469;-75
2023/05/01 10:46:07;;;;;;;2.90;2.40;;;18.50;96.00;;;;;;5074072;28;20422;-74
2023/05/01 10:48:52;;;;;;;3.93;2.40;;;18.40;95.90;;;;;;5072180;28;20479;-74
2023/05/01 10:51:20;;;;;;;3.30;2.67;;;18.40;95.90;;;;;;5077959;28;20457;-75
2023/05/01 10:54:12;;;;;;;2.50;2.30;;;18.40;95.90;;;;;;5071171;28;20859;-75
2023/05/01 10:56:37;;;;;;;3.10;2.70;;;18.40;95.80;;;;;;5069436;28;20441;-75
2023/05/01 10:59:04;;;;;;;3.70;2.60;;;18.50;96.50;;;;;;5069807;28;20546;-75
2023/05/01 11:01:32;;;;;;;6.70;3.37;;;18.50;97.10;;;;;;5066247;28;20275;-74
2023/05/01 11:04:03;;;;;;;2.70;2.50;;;18.50;95.60;;;;;;5069732;28;20465;-74
2023/05/01 11:06:29;;;;;;;4.03;3.13;;;18.50;95.40;;;;;;5069608;28;20435;-75
2023/05/01 11:08:56;;;;;;;3.13;2.83;;;18.40;95.30;;;;;;5065478;28;20451;-74
2023/05/01 11:11:21;;;;;;;2.27;2.17;;;18.40;95.50;;;;;;5054031;28;20435;-75
2023/05/01 11:14:02;;;;;;;2.47;2.27;;;18.40;94.90;;;;;;5067747;28;20886;-75
2023/05/01 11:16:38;;;;;;;3.47;1.90;;;18.30;94.00;;;;;;5066493;28;20169;-75
2023/05/01 11:19:22;;;;;;;2.20;2.00;;;18.30;95.30;;;;;;5047549;28;20836;-75
2023/05/01 11:21:49;;;;;;;2.27;2.07;;;18.40;96.00;;;;;;5066266;28;20463;-75
2023/05/01 11:24:17;;;;;;;3.57;2.60;;;18.50;95.70;;;;;;5067225;28;20415;-74
2023/05/01 11:26:43;;;;;;;2.00;1.80;;;18.60;95.60;;;;;;5049423;28;20438;-74
2023/05/01 11:29:10;;;;;;;2.10;1.90;;;18.60;93.50;;;;;;5067614;28;20447;-74
2023/05/01 11:31:36;;;;;;;1.90;1.70;;;18.60;94.60;;;;;;5067259;28;20432;-75
2023/05/01 11:34:02;;;;;;;2.03;1.90;;;18.60;94.70;;;;;;5049348;28;20407;-75
2023/05/01 11:36:45;;;;;;;2.93;2.03;;;18.60;94.20;;;;;;5066851;28;20415;-74
2023/05/01 11:39:14;;;;;;;2.90;1.70;;;18.70;93.50;;;;;;5052173;28;20484;-74
2023/05/01 11:41:40;;;;;;;2.13;1.97;;;18.80;94.60;;;;;;5066471;28;20517;-76
2023/05/01 11:44:05;;;;;;;1.50;1.40;;;18.80;93.80;;;;;;5060874;28;20443;-75
2023/05/01 11:46:32;;;;;;;1.70;1.50;;;18.90;92.20;;;;;;5066941;28;20213;-75
2023/05/01 11:49:02;;;;;;;1.60;1.50;;;18.90;92.00;;;;;;5065868;28;20215;-76
2023/05/01 11:51:31;;;;;;;2.50;1.40;;;18.90;92.80;;;;;;5066597;28;20569;-75
2023/05/01 11:54:01;;;;;;;1.80;1.57;;;18.90;93.20;;;;;;5066730;28;20502;-75
2023/05/01 11:56:26;;;;;;;1.60;1.50;;;18.80;92.00;;;;;;5065645;28;20434;-76
2023/05/01 11:58:57;;;;;;;1.87;1.50;;;18.80;91.30;;;;;;5066837;28;20501;-76
2023/05/01 12:01:37;;;;;;;3.40;1.70;;;18.80;91.70;;;;;;5066374;28;21053;-75
2023/05/01 12:04:04;;;;;;;1.73;1.63;;;18.70;90.80;;;;;;5064805;28;20530;-76
2023/05/01 12:06:59;;;;;;;2.80;2.13;;;18.70;90.50;;;;;;5067033;28;20428;-75
2023/05/01 12:09:26;;;;;;;3.43;1.87;;;18.60;90.90;;;;;;5061689;28;20481;-76
2023/05/01 12:11:52;;;;;;;2.03;1.83;;;18.60;92.30;;;;;;5092450;28;20438;-76
2023/05/01 12:14:20;;;;;;;2.50;2.20;;;18.60;93.30;;;;;;5092285;28;20978;-76
2023/05/01 12:16:47;;;;;;;1.97;1.57;;;18.60;93.30;;;;;;5085890;28;20557;-77
2023/05/01 12:19:14;;;;;;;1.90;1.77;;;18.60;93.30;;;;;;5071605;28;20420;-76
2023/05/01 12:21:40;;;;;;;1.80;1.70;;;18.50;92.80;;;;;;5070339;28;20928;-77
2023/05/01 12:24:16;;;;;;;3.30;2.10;;;18.50;93.00;;;;;;5053765;28;20445;-77
2023/05/01 12:26:45;;;;;;;2.10;1.30;;;18.50;93.20;;;;;;5072105;28;20474;-76
2023/05/01 12:29:11;;;;;;;3.03;1.80;;;18.50;93.50;;;;;;5071642;28;20948;-77
2023/05/01 12:31:47;;;;;;;1.47;1.37;;;18.50;93.20;;;;;;5071189;28;20480;-76
2023/05/01 12:34:12;;;;;;;1.70;1.60;;;18.50;92.30;;;;;;5070450;28;20506;-77
2023/05/01 12:36:38;;;;;;;2.77;1.90;;;18.50;93.40;;;;;;5070450;28;20576;-77
2023/05/01 12:39:09;;;;;;;2.10;2.00;;;18.50;93.30;;;;;;5071552;28;20210;-77
2023/05/01 12:41:44;;;;;;;2.17;2.00;;;18.50;93.20;;;;;;5071670;28;20933;-76
2023/05/01 12:44:23;;;;;;;2.10;1.90;;;18.50;95.20;;;;;;5071465;28;20406;-77
2023/05/01 12:46:59;;;;;;;2.13;1.93;;;18.50;95.00;;;;;;5071222;28;20421;-76
2023/05/01 12:49:25;;;;;;;2.00;1.90;;;18.40;94.30;;;;;;5071238;28;21023;-77
2023/05/01 12:51:55;;;;;;;2.90;2.47;;;18.50;94.40;;;;;;5070149;28;20431;-77